Map

Track Data

SID SEASON NUMBER BASIN SUBBASIN NAME ISO_TIME NATURE LAT LON WMO_WIND WMO_PRES WMO_AGENCY TRACK_TYPE DIST2LAND LANDFALL IFLAG USA_AGENCY USA_ATCF_ID USA_LAT USA_LON USA_RECORD USA_STATUS USA_WIND USA_PRES USA_SSHS USA_R34_NE USA_R34_SE USA_R34_SW USA_R34_NW USA_R50_NE USA_R50_SE USA_R50_SW USA_R50_NW USA_R64_NE USA_R64_SE USA_R64_SW USA_R64_NW USA_POCI USA_ROCI USA_RMW USA_EYE TOKYO_LAT TOKYO_LON TOKYO_GRADE TOKYO_WIND TOKYO_PRES TOKYO_R50_DIR TOKYO_R50_LONG TOKYO_R50_SHORT TOKYO_R30_DIR TOKYO_R30_LONG TOKYO_R30_SHORT TOKYO_LAND CMA_LAT CMA_LON CMA_CAT CMA_WIND CMA_PRES HKO_LAT HKO_LON HKO_CAT HKO_WIND HKO_PRES NEWDELHI_LAT NEWDELHI_LON NEWDELHI_GRADE NEWDELHI_WIND NEWDELHI_PRES NEWDELHI_CI NEWDELHI_DP NEWDELHI_POCI REUNION_LAT REUNION_LON REUNION_TYPE REUNION_WIND REUNION_PRES REUNION_TNUM REUNION_CI REUNION_RMW REUNION_R34_NE REUNION_R34_SE REUNION_R34_SW REUNION_R34_NW REUNION_R50_NE REUNION_R50_SE REUNION_R50_SW REUNION_R50_NW REUNION_R64_NE REUNION_R64_SE REUNION_R64_SW REUNION_R64_NW BOM_LAT BOM_LON BOM_TYPE BOM_WIND BOM_PRES BOM_TNUM BOM_CI BOM_RMW BOM_R34_NE BOM_R34_SE BOM_R34_SW BOM_R34_NW BOM_R50_NE BOM_R50_SE BOM_R50_SW BOM_R50_NW BOM_R64_NE BOM_R64_SE BOM_R64_SW BOM_R64_NW BOM_ROCI BOM_POCI BOM_EYE BOM_POS_METHOD BOM_PRES_METHOD NADI_LAT NADI_LON NADI_CAT NADI_WIND NADI_PRES WELLINGTON_LAT WELLINGTON_LON WELLINGTON_WIND WELLINGTON_PRES DS824_LAT DS824_LON DS824_STAGE DS824_WIND DS824_PRES TD9636_LAT TD9636_LON TD9636_STAGE TD9636_WIND TD9636_PRES TD9635_LAT TD9635_LON TD9635_WIND TD9635_PRES TD9635_ROCI NEUMANN_LAT NEUMANN_LON NEUMANN_CLASS NEUMANN_WIND NEUMANN_PRES MLC_LAT MLC_LON MLC_CLASS MLC_WIND MLC_PRES USA_GUST BOM_GUST BOM_GUST_PER REUNION_GUST REUNION_GUST_PER USA_SEAHGT USA_SEARAD_NE USA_SEARAD_SE USA_SEARAD_SW USA_SEARAD_NW STORM_SPEED STORM_DIR
1860269N20266 1860 33 NA GM NOT_NAMED 1860-09-24 12:00:00 TS 19.5000 -93.8000 main 134 134 _____________O -1 19.5000 -93.8000 TD 30 1 262
1860269N20266 1860 33 NA GM NOT_NAMED 1860-09-24 15:00:00 TS 19.4925 -93.8600 main 134 134 _____________P -1 19.4925 -93.8600 TD 30 1 270
1860269N20266 1860 33 NA GM NOT_NAMED 1860-09-24 18:00:00 TS 19.5000 -93.9000 main 134 134 _____________O -1 19.5000 -93.9000 TD 30 1 319
1860269N20266 1860 33 NA GM NOT_NAMED 1860-09-24 21:00:00 TS 19.5350 -93.9075 main 134 134 _____________P -1 19.5350 -93.9075 TD 30 1 0
1860269N20266 1860 33 NA GM NOT_NAMED 1860-09-25 00:00:00 TS 19.6000 -93.9000 main 145 145 _____________O -1 19.6000 -93.9000 TD 30 2 6
1860269N20266 1860 33 NA GM NOT_NAMED 1860-09-25 03:00:00 TS 19.6925 -93.8925 main 156 156 _____________P -1 19.6925 -93.8925 TD 30 2 8
1860269N20266 1860 33 NA GM NOT_NAMED 1860-09-25 06:00:00 TS 19.8000 -93.9000 main 167 167 _____________O -1 19.8000 -93.9000 TD 30 2 343
1860269N20266 1860 33 NA GM NOT_NAMED 1860-09-25 09:00:00 TS 19.9000 -93.9500 main 178 178 _____________P -1 19.9000 -93.9500 TD 30 2 333
1860269N20266 1860 33 NA GM NOT_NAMED 1860-09-25 12:00:00 TS 20.0000 -94.0000 main 188 188 _____________O -1 20.0000 -94.0000 TD 30 2 343
1860269N20266 1860 33 NA GM NOT_NAMED 1860-09-25 15:00:00 TS 20.1000 -94.0075 main 197 197 _____________P -1 20.1000 -94.0075 TD 30 2 8
1860269N20266 1860 33 NA GM NOT_NAMED 1860-09-25 18:00:00 TS 20.2000 -94.0000 main 207 207 _____________O -1 20.2000 -94.0000 TD 30 2 8
1860269N20266 1860 33 NA GM NOT_NAMED 1860-09-25 21:00:00 TS 20.3000 -94.0075 main 217 217 _____________P -1 20.3000 -94.0075 TD 30 2 8
1860269N20266 1860 33 NA GM NOT_NAMED 1860-09-26 00:00:00 TS 20.4000 -94.0000 main 226 226 _____________O -1 20.4000 -94.0000 TD 30 2 17
1860269N20266 1860 33 NA GM NOT_NAMED 1860-09-26 03:00:00 TS 20.5000 -93.9500 main 236 236 _____________P -1 20.5000 -93.9500 TD 30 2 27
1860269N20266 1860 33 NA GM NOT_NAMED 1860-09-26 06:00:00 TS 20.6000 -93.9000 main 251 251 _____________O -1 20.6000 -93.9000 TD 30 2 17
1860269N20266 1860 33 NA GM NOT_NAMED 1860-09-26 09:00:00 TS 20.7000 -93.8925 main 261 261 _____________P -1 20.7000 -93.8925 TD 30 2 8
1860269N20266 1860 33 NA GM NOT_NAMED 1860-09-26 12:00:00 TS 20.8000 -93.9000 main 271 271 _____________O -1 20.8000 -93.9000 TD 30 2 352
1860269N20266 1860 33 NA GM NOT_NAMED 1860-09-26 15:00:00 TS 20.9000 -93.9075 main 281 281 _____________P -1 20.9000 -93.9075 TD 30 2 8
1860269N20266 1860 33 NA GM NOT_NAMED 1860-09-26 18:00:00 TS 21.0000 -93.9000 main 288 288 _____________O -1 21.0000 -93.9000 TD 30 2 17
1860269N20266 1860 33 NA GM NOT_NAMED 1860-09-26 21:00:00 TS 21.1000 -93.8500 main 292 292 _____________P -1 21.1000 -93.8500 TD 30 2 27
1860269N20266 1860 33 NA GM NOT_NAMED 1860-09-27 00:00:00 TS 21.2000 -93.8000 main 307 307 _____________O -1 21.2000 -93.8000 TD 30 2 17
1860269N20266 1860 33 NA GM NOT_NAMED 1860-09-27 03:00:00 TS 21.3000 -93.7925 main 312 312 _____________P -1 21.3000 -93.7925 TD 30 2 8
1860269N20266 1860 33 NA GM NOT_NAMED 1860-09-27 06:00:00 TS 21.4000 -93.8000 main 318 318 _____________O -1 21.4000 -93.8000 TD 30 2 352
1860269N20266 1860 33 NA GM NOT_NAMED 1860-09-27 09:00:00 TS 21.5000 -93.8075 main 324 324 _____________P -1 21.5000 -93.8075 TD 30 2 8
1860269N20266 1860 33 NA GM NOT_NAMED 1860-09-27 12:00:00 TS 21.6000 -93.8000 main 330 330 _____________O -1 21.6000 -93.8000 TD 30 2 17
1860269N20266 1860 33 NA GM NOT_NAMED 1860-09-27 15:00:00 TS 21.7000 -93.7500 main 336 336 _____________P -1 21.7000 -93.7500 TD 32 2 27
1860269N20266 1860 33 NA GM NOT_NAMED 1860-09-27 18:00:00 TS 21.8000 -93.7000 main 351 351 _____________O -1 21.8000 -93.7000 TS 35 2 17
1860269N20266 1860 33 NA GM NOT_NAMED 1860-09-27 21:00:00 TS 21.9000 -93.6925 main 358 358 _____________P -1 21.9000 -93.6925 TS 35 2 8
1860269N20266 1860 33 NA GM NOT_NAMED 1860-09-28 00:00:00 TS 22.0000 -93.7000 main 365 365 _____________O -1 22.0000 -93.7000 TS 35 2 352
1860269N20266 1860 33 NA GM NOT_NAMED 1860-09-28 03:00:00 TS 22.1000 -93.7075 main 368 368 _____________P -1 22.1000 -93.7075 TS 37 2 8
1860269N20266 1860 33 NA GM NOT_NAMED 1860-09-28 06:00:00 TS 22.2000 -93.7000 main 372 372 _____________O -1 22.2000 -93.7000 TS 40 2 17
1860269N20266 1860 33 NA GM NOT_NAMED 1860-09-28 09:00:00 TS 22.3000 -93.6500 main 375 366 _____________P -1 22.3000 -93.6500 TS 40 2 25
1860269N20266 1860 33 NA GM NOT_NAMED 1860-09-28 12:00:00 TS 22.4000 -93.6000 main 370 370 _____________O -1 22.4000 -93.6000 TS 40 2 17
1860269N20266 1860 33 NA GM NOT_NAMED 1860-09-28 15:00:00 TS 22.5000 -93.5925 main 374 374 _____________P -1 22.5000 -93.5925 TS 42 2 8
1860269N20266 1860 33 NA GM NOT_NAMED 1860-09-28 18:00:00 TS 22.6000 -93.6000 main 379 379 _____________O -1 22.6000 -93.6000 TS 45 2 352
1860269N20266 1860 33 NA GM NOT_NAMED 1860-09-28 21:00:00 TS 22.7000 -93.6075 main 384 384 _____________P -1 22.7000 -93.6075 TS 45 2 8
1860269N20266 1860 33 NA GM NOT_NAMED 1860-09-29 00:00:00 TS 22.8000 -93.6000 main 389 389 _____________O -1 22.8000 -93.6000 TS 45 2 17
1860269N20266 1860 33 NA GM NOT_NAMED 1860-09-29 03:00:00 TS 22.9000 -93.5500 main 395 386 _____________P -1 22.9000 -93.5500 TS 47 2 25
1860269N20266 1860 33 NA GM NOT_NAMED 1860-09-29 06:00:00 TS 23.0000 -93.5000 main 392 392 _____________O -1 23.0000 -93.5000 TS 50 2 17
1860269N20266 1860 33 NA GM NOT_NAMED 1860-09-29 09:00:00 TS 23.1000 -93.4925 main 398 398 _____________P -1 23.1000 -93.4925 TS 52 2 8
1860269N20266 1860 33 NA GM NOT_NAMED 1860-09-29 12:00:00 TS 23.2000 -93.5000 main 404 404 _____________O -1 23.2000 -93.5000 TS 55 2 352
1860269N20266 1860 33 NA GM NOT_NAMED 1860-09-29 15:00:00 TS 23.3000 -93.5075 main 411 411 _____________P -1 23.3000 -93.5075 TS 57 2 8
1860269N20266 1860 33 NA GM NOT_NAMED 1860-09-29 18:00:00 TS 23.4000 -93.5000 main 417 417 _____________O -1 23.4000 -93.5000 TS 60 2 17
1860269N20266 1860 33 NA GM NOT_NAMED 1860-09-29 21:00:00 TS 23.4925 -93.4500 main 424 333 _____________P -1 23.4925 -93.4500 TS 60 9 104
1860269N20266 1860 33 NA GM NOT_NAMED 1860-09-30 00:00:00 TS 23.2000 -92.6000 50 hurdat_atl main 333 297 O____________O hurdat_atl AL061860 22.4000 -91.0000 TS 50 0 23.6000 -93.4000 TS 60 12 109
1860269N20266 1860 33 NA GM NOT_NAMED 1860-09-30 03:00:00 TS 23.1112 -92.2163 main 297 283 P____________P AL061860 22.4800 -91.0400 TS 50 0 23.7425 -93.3925 TS 62 5 99
1860269N20266 1860 33 NA GM NOT_NAMED 1860-09-30 06:00:00 TS 23.1200 -92.0200 50 hurdat_atl main 283 283 O____________O hurdat_atl AL061860 22.6000 -91.1000 TS 50 0 23.9000 -93.4000 HU 65 3 71
1860269N20266 1860 33 NA GM NOT_NAMED 1860-09-30 09:00:00 TS 23.2042 -91.9283 main 286 286 P____________P AL061860 22.7850 -91.1925 TS 55 0 24.0425 -93.4000 HU 67 3 0
1860269N20266 1860 33 NA GM NOT_NAMED 1860-09-30 12:00:00 TS 23.4000 -92.0000 60 hurdat_atl main 310 310 O____________O hurdat_atl AL061860 23.0000 -91.3000 TS 60 0 24.2000 -93.4000 HU 70 4 341
1860269N20266 1860 33 NA GM NOT_NAMED 1860-09-30 15:00:00 TS 23.6025 -92.0766 main 335 335 P____________P AL061860 23.2075 -91.4075 TS 60 0 24.3925 -93.4149 HU 72 4 343
1860269N20266 1860 33 NA GM NOT_NAMED 1860-09-30 18:00:00 TS 23.8000 -92.1333 60 hurdat_atl main 353 353 O____________O hurdat_atl AL061860 23.4000 -91.5000 TS 60 0 24.6000 -93.4000 HU 75 3 352
1860269N20266 1860 33 NA GM NOT_NAMED 1860-09-30 21:00:00 TS 23.9416 -92.1384 main 363 363 P____________P AL061860 23.5275 -91.5427 TS 65 1 24.7700 -93.3298 HU 77 3 1
1860269N20266 1860 33 NA GM NOT_NAMED 1860-10-01 00:00:00 TS 24.1333 -92.1333 70 hurdat_atl main 382 382 O____________O hurdat_atl AL061860 23.7000 -91.6000 HU 70 1 25.0000 -93.2000 HU 80 5 357
1860269N20266 1860 33 NA GM NOT_NAMED 1860-10-01 03:00:00 TS 24.4700 -92.1815 main 427 427 P____________P AL061860 24.0201 -91.7498 HU 70 1 25.3699 -93.0448 HU 80 7 355
1860269N20266 1860 33 NA GM NOT_NAMED 1860-10-01 06:00:00 TS 24.8667 -92.2000 70 hurdat_atl main 467 451 O____________O hurdat_atl AL061860 24.4000 -91.9000 HU 70 1 25.8000 -92.8000 HU 80 982 8 6
1860269N20266 1860 33 NA GM NOT_NAMED 1860-10-01 09:00:00 TS 25.2234 -92.1078 main 451 405 P____________P AL061860 24.7350 -91.9652 HU 75 1 26.2003 -92.3929 HU 82 8 14
1860269N20266 1860 33 NA GM NOT_NAMED 1860-10-01 12:00:00 TS 25.6000 -92.0000 80 hurdat_atl main 405 362 O____________O hurdat_atl AL061860 25.1000 -92.0000 HU 80 1 26.6000 -92.0000 HU 85 8 8
1860269N20266 1860 33 NA GM NOT_NAMED 1860-10-01 15:00:00 TS 26.0283 -91.9806 main 362 320 P____________P AL061860 25.5425 -92.0649 HU 80 1 26.9998 -91.8120 HU 87 9 3
1860269N20266 1860 33 NA GM NOT_NAMED 1860-10-01 18:00:00 TS 26.4667 -91.9667 80 hurdat_atl main 309 274 O____________O hurdat_atl AL061860 26.0000 -92.1000 HU 80 1 27.4000 -91.7000 HU 90 9 5
1860269N20266 1860 33 NA GM NOT_NAMED 1860-10-01 21:00:00 TS 26.8717 -91.8909 main 264 229 P____________P AL061860 26.4075 -92.0651 HU 80 1 27.8000 -91.5425 HU 92 8 11
1860269N20266 1860 33 NA GM NOT_NAMED 1860-10-02 00:00:00 TS 27.2667 -91.8000 80 hurdat_atl main 219 184 O____________O hurdat_atl AL061860 26.8000 -92.0000 HU 80 1 28.2000 -91.4000 HU 95 8 9
1860269N20266 1860 33 NA GM NOT_NAMED 1860-10-02 03:00:00 TS 27.6641 -91.7431 main 174 145 P____________P AL061860 27.1925 -91.9648 HU 85 2 28.6075 -91.2998 HU 97 8 9
1860269N20266 1860 33 NA GM NOT_NAMED 1860-10-02 06:00:00 TS 28.0667 -91.6667 90 hurdat_atl main 136 97 O____________O hurdat_atl AL061860 27.6000 -91.9000 HU 90 2 29.0000 -91.2000 MH 100 8 14
1860269N20266 1860 33 NA GM NOT_NAMED 1860-10-02 09:00:00 TS 28.4695 -91.5158 main 87 44 P____________P AL061860 28.0180 -91.7598 HU 90 2 29.3726 -91.0278 MH 95 9 18
1860269N20266 1860 33 NA GM NOT_NAMED 1860-10-02 12:00:00 TS 28.9000 -91.3667 90 hurdat_atl main 44 0 O____________O hurdat_atl AL061860 28.5000 -91.6000 HU 90 2 29.7000 -90.9000 HU 90 9 13
1860269N20266 1860 33 NA GM NOT_NAMED 1860-10-02 15:00:00 TS 29.3835 -91.2730 main 0 0 P____________P AL061860 29.0890 -91.4496 HU 90 2 29.9725 -90.9198 HU 82 10 7
1860269N20266 1860 33 NA NA NOT_NAMED 1860-10-02 17:00:00 TS 29.7092 -91.2576 90 hurdat_atl main 0 0 O____________P hurdat_atl AL061860 29.5000 -91.4000 L HU 90 2 30.1276 -90.9727 HU 77 10 0
1860269N20266 1860 33 NA NA NOT_NAMED 1860-10-02 18:00:00 TS 29.8667 -91.2667 90 hurdat_atl main 0 0 O____________O hurdat_atl AL061860 29.7000 -91.4000 HU 90 2 30.2000 -91.0000 HU 75 11 7
1860269N20266 1860 33 NA NA NOT_NAMED 1860-10-02 21:00:00 TS 30.4124 -91.1558 main 0 0 P____________P AL061860 30.4337 -91.2124 HU 75 1 30.3700 -91.0427 HU 67 12 13
1860269N20266 1860 33 NA NA NOT_NAMED 1860-10-03 00:00:00 TS 31.0000 -90.9667 60 hurdat_atl main 0 0 O____________O hurdat_atl AL061860 31.2000 -90.9000 TS 60 0 30.6000 -91.1000 TS 60 11 13
1860269N20266 1860 33 NA NA NOT_NAMED 1860-10-03 03:00:00 TS 31.5140 -90.8514 main 0 0 P____________P AL061860 31.7724 -90.6992 TS 55 0 30.9974 -91.1556 TS 55 11 9
1860269N20266 1860 33 NA NA NOT_NAMED 1860-10-03 06:00:00 TS 32.0333 -90.7667 50 hurdat_atl main 0 0 O____________O hurdat_atl AL061860 32.3000 -90.5000 TS 50 0 31.5000 -91.3000 TS 50 11 6
1860269N20266 1860 33 NA NA NOT_NAMED 1860-10-03 09:00:00 TS 32.6290 -90.7208 main 0 0 P____________P AL061860 32.8923 -90.2867 TS 45 0 32.1024 -91.5890 TS 45 12 5
1860269N20266 1860 33 NA NA NOT_NAMED 1860-10-03 12:00:00 TS 33.2000 -90.6667 40 hurdat_atl main 0 0 O____________O hurdat_atl AL061860 33.5000 -90.0000 TS 40 0 32.6000 -92.0000 TS 40 11 8
1860269N20266 1860 33 NA NA NOT_NAMED 1860-10-03 15:00:00 TS 33.6672 -90.5540 main 0 0 P____________P AL061860 34.1031 -89.5892 TS 40 0 32.7954 -92.4834 TS 35 9 14
1860269N20266 1860 33 NA NA NOT_NAMED 1860-10-03 18:00:00 TS 34.0667 -90.4000 40 hurdat_atl main 0 O____________O hurdat_atl AL061860 34.7000 -89.1000 TS 40 0 32.8000 -93.0000 TD 30 8 17

About IBTrACS Database

This database is a web-friendly format of International Best Track Archive for Climate Stewardship (IBTrACS), a global best track data archive curated by NOAA dating back to 1842.

Updated: 2021-12-03